createdAt,value
2023-04-16T00:02:57.340Z,13.37
2023-04-16T00:05:59.293Z,10.80
2023-04-16T00:09:01.108Z,15.17
2023-04-16T00:12:03.339Z,12.87
2023-04-16T00:15:05.518Z,11.77
2023-04-16T00:18:07.227Z,13.77
2023-04-16T00:21:08.861Z,13.70
2023-04-16T00:24:10.589Z,13.57
2023-04-16T00:27:12.209Z,16.50
2023-04-16T00:30:13.795Z,13.50
2023-04-16T00:33:16.938Z,12.40
2023-04-16T00:36:18.584Z,16.23
2023-04-16T00:39:20.260Z,13.27
2023-04-16T00:42:21.856Z,12.60
2023-04-16T00:45:23.671Z,15.50
2023-04-16T00:48:28.076Z,12.13
2023-04-16T00:51:29.949Z,14.87
2023-04-16T00:54:32.260Z,15.40
2023-04-16T00:57:33.827Z,14.50
2023-04-16T01:03:48.138Z,14.47
2023-04-16T01:06:49.810Z,11.07
2023-04-16T01:09:51.391Z,12.33
2023-04-16T01:12:52.918Z,10.13
2023-04-16T01:15:54.601Z,12.93
2023-04-16T01:18:56.532Z,12.80
2023-04-16T01:21:59.164Z,13.57
2023-04-16T01:25:00.853Z,9.10
2023-04-16T01:28:02.446Z,12.37
2023-04-16T01:31:04.095Z,11.80
2023-04-16T01:34:06.013Z,10.70
2023-04-16T01:37:07.898Z,10.67
2023-04-16T01:40:10.180Z,10.50
2023-04-16T01:43:11.758Z,14.43
2023-04-16T01:46:26.987Z,10.00
2023-04-16T01:49:29.418Z,8.90
2023-04-16T01:52:31.084Z,9.67
2023-04-16T01:55:33.977Z,10.47
2023-04-16T01:58:35.745Z,11.57
2023-04-16T02:01:37.345Z,12.37
2023-04-16T02:04:45.020Z,12.00
2023-04-16T02:07:46.603Z,12.90
2023-04-16T02:10:50.027Z,12.67
2023-04-16T02:13:51.633Z,12.63
2023-04-16T02:16:53.504Z,10.90
2023-04-16T02:19:55.417Z,16.43
2023-04-16T02:22:56.986Z,13.10
2023-04-16T02:25:58.628Z,10.87
2023-04-16T02:29:00.339Z,12.90
2023-04-16T02:32:01.940Z,13.90
2023-04-16T02:35:04.044Z,15.97
2023-04-16T02:38:06.297Z,12.90
2023-04-16T02:41:07.934Z,13.23
2023-04-16T02:44:09.497Z,13.03
2023-04-16T02:47:11.085Z,15.20
2023-04-16T02:50:12.812Z,14.03
2023-04-16T02:53:14.375Z,14.07
2023-04-16T02:56:16.237Z,13.20
2023-04-16T02:59:17.812Z,12.67
2023-04-16T03:02:19.568Z,13.83
2023-04-16T03:05:21.523Z,13.30
2023-04-16T03:08:23.253Z,15.60
2023-04-16T03:11:24.914Z,15.27
2023-04-16T03:14:26.464Z,13.77
2023-04-16T03:17:28.114Z,13.57
2023-04-16T03:20:29.792Z,14.40
2023-04-16T03:23:31.386Z,13.47
2023-04-16T03:26:32.984Z,16.23
2023-04-16T03:29:38.438Z,16.93
2023-04-16T03:32:40.810Z,17.10
2023-04-16T03:35:42.373Z,15.70
2023-04-16T03:38:44.128Z,14.97
2023-04-16T03:41:46.141Z,17.50
2023-04-16T03:44:47.844Z,14.10
2023-04-16T03:47:52.607Z,17.57
2023-04-16T03:50:54.367Z,15.77
2023-04-16T03:53:56.036Z,15.10
2023-04-16T03:56:57.703Z,17.70
2023-04-16T03:59:59.328Z,14.07
2023-04-16T04:03:01.710Z,16.33
2023-04-16T04:06:09.916Z,18.27
2023-04-16T04:09:25.370Z,16.10
2023-04-16T04:12:27.170Z,16.13
2023-04-16T04:15:28.807Z,17.27
2023-04-16T04:18:30.525Z,17.13
2023-04-16T04:21:32.514Z,15.90
2023-04-16T04:24:34.092Z,15.00
2023-04-16T04:27:36.063Z,15.67
2023-04-16T04:30:37.628Z,14.33
2023-04-16T04:33:39.371Z,18.20
2023-04-16T04:36:41.036Z,16.00
2023-04-16T04:39:42.617Z,18.47
2023-04-16T04:42:44.279Z,18.47
2023-04-16T04:45:46.265Z,15.20
2023-04-16T04:48:47.945Z,16.47
2023-04-16T04:51:49.571Z,15.53
2023-04-16T04:54:52.513Z,15.10
2023-04-16T04:57:54.089Z,12.93
2023-04-16T05:00:55.874Z,14.77
2023-04-16T05:03:57.585Z,19.63
2023-04-16T05:06:59.313Z,19.60
2023-04-16T05:10:01.130Z,16.03
2023-04-16T05:13:02.809Z,16.03
2023-04-16T05:16:04.780Z,16.50
2023-04-16T05:19:06.616Z,17.83
2023-04-16T05:22:08.338Z,16.23
2023-04-16T05:25:10.297Z,16.23
2023-04-16T05:28:12.011Z,13.80
2023-04-16T05:31:13.679Z,12.67
2023-04-16T05:34:15.399Z,12.80
2023-04-16T05:37:16.976Z,14.60
2023-04-16T05:40:18.634Z,14.40
2023-04-16T05:43:20.220Z,16.70
2023-04-16T05:46:21.857Z,14.00
2023-04-16T05:49:23.503Z,15.47
2023-04-16T05:52:25.173Z,15.73
2023-04-16T05:55:26.788Z,16.23
2023-04-16T05:58:28.382Z,17.07
2023-04-16T06:01:30.140Z,16.87
2023-04-16T06:04:31.795Z,17.90
2023-04-16T06:07:33.465Z,15.83
2023-04-16T06:10:35.248Z,14.73
2023-04-16T06:13:37.368Z,17.53
2023-04-16T06:16:39.896Z,16.83
2023-04-16T06:19:41.566Z,17.07
2023-04-16T06:22:43.194Z,18.30
2023-04-16T06:25:44.861Z,15.80
2023-04-16T06:28:46.420Z,19.37
2023-04-16T06:31:48.527Z,21.10
2023-04-16T06:34:50.421Z,18.90
2023-04-16T06:37:52.139Z,17.00
2023-04-16T06:40:53.760Z,16.03
2023-04-16T06:43:55.448Z,19.00
2023-04-16T06:46:57.111Z,15.80
2023-04-16T06:49:58.798Z,16.60
2023-04-16T06:53:00.637Z,20.83
2023-04-16T06:56:02.260Z,17.67
2023-04-16T06:59:04.505Z,15.60
2023-04-16T07:02:07.592Z,20.10
2023-04-16T07:05:09.372Z,18.97
2023-04-16T07:08:11.165Z,20.23
2023-04-16T07:11:12.909Z,19.90
2023-04-16T07:14:14.588Z,19.10
2023-04-16T07:17:16.208Z,20.07
2023-04-16T07:20:17.941Z,19.60
2023-04-16T07:23:19.504Z,20.20
2023-04-16T07:26:21.075Z,19.53
2023-04-16T07:29:22.653Z,17.20
2023-04-16T07:32:24.469Z,21.40
2023-04-16T07:35:26.134Z,21.07
2023-04-16T07:38:27.780Z,22.20
2023-04-16T07:41:32.436Z,23.80
2023-04-16T07:44:34.100Z,24.60
2023-04-16T07:47:35.994Z,21.30
2023-04-16T07:50:37.759Z,21.27
2023-04-16T07:53:39.351Z,24.03
2023-04-16T07:56:41.086Z,21.60
2023-04-16T07:59:42.652Z,19.47
2023-04-16T08:02:44.695Z,23.67
2023-04-16T08:05:46.524Z,18.63
2023-04-16T08:08:48.104Z,22.00
2023-04-16T08:11:51.067Z,22.37
2023-04-16T08:14:52.694Z,24.70
2023-04-16T08:17:54.270Z,21.67
2023-04-16T08:20:56.312Z,22.70
2023-04-16T08:23:58.171Z,21.57
2023-04-16T08:27:08.102Z,23.00
2023-04-16T08:30:19.419Z,20.20
2023-04-16T08:33:21.613Z,15.27
2023-04-16T08:36:23.372Z,16.80
2023-04-16T08:39:24.922Z,15.73
2023-04-16T08:42:44.149Z,12.93
2023-04-16T08:45:48.007Z,17.47
2023-04-16T08:48:53.295Z,16.53
2023-04-16T08:51:56.138Z,13.77
2023-04-16T08:55:05.955Z,13.43
2023-04-16T08:58:13.333Z,13.57
2023-04-16T09:01:17.173Z,15.53
2023-04-16T09:04:19.843Z,15.00
2023-04-16T09:07:22.465Z,13.57
2023-04-16T09:10:26.552Z,15.57
2023-04-16T09:13:28.820Z,14.77
2023-04-16T09:16:34.093Z,16.37
2023-04-16T09:19:35.912Z,15.83
2023-04-16T09:22:38.340Z,16.30
2023-04-16T09:25:40.063Z,17.97
2023-04-16T09:28:43.983Z,15.30
2023-04-16T09:32:03.173Z,17.70
2023-04-16T09:35:05.260Z,21.77
2023-04-16T09:38:06.817Z,21.00
2023-04-16T09:41:08.865Z,22.57
2023-04-16T09:44:10.606Z,20.53
2023-04-16T09:47:12.649Z,19.67
2023-04-16T09:50:19.189Z,20.03
2023-04-16T09:53:27.907Z,18.20
2023-04-16T09:56:30.347Z,18.90
2023-04-16T09:59:34.029Z,19.20
2023-04-16T10:02:38.932Z,19.40
2023-04-16T10:05:41.438Z,19.70
2023-04-16T10:08:50.873Z,17.00
2023-04-16T10:11:52.511Z,20.10
2023-04-16T10:14:54.103Z,19.10
2023-04-16T10:17:57.293Z,19.10
2023-04-16T10:20:59.379Z,18.30
2023-04-16T10:24:01.499Z,18.20
2023-04-16T10:27:03.277Z,20.50
2023-04-16T10:30:07.217Z,16.67
2023-04-16T10:33:09.771Z,18.33
2023-04-16T10:36:23.236Z,20.50
2023-04-16T10:39:28.156Z,22.60
2023-04-16T10:42:31.259Z,18.13
2023-04-16T10:45:37.732Z,19.53
2023-04-16T10:48:49.132Z,19.77
2023-04-16T10:51:59.689Z,18.83
2023-04-16T10:55:01.309Z,17.00
2023-04-16T10:58:02.897Z,18.57
2023-04-16T11:01:13.236Z,17.07
2023-04-16T11:04:21.096Z,18.77
2023-04-16T11:07:33.780Z,19.07
2023-04-16T11:10:39.310Z,20.97
2023-04-16T11:13:45.572Z,19.80
2023-04-16T11:16:47.180Z,20.57
2023-04-16T11:19:49.337Z,19.70
2023-04-16T11:22:55.511Z,20.43
2023-04-16T11:25:58.567Z,19.50
2023-04-16T11:29:00.938Z,22.30
2023-04-16T11:32:02.620Z,19.70
2023-04-16T11:35:24.531Z,20.70
2023-04-16T11:38:40.949Z,19.27
2023-04-16T11:41:50.530Z,22.17
2023-04-16T11:44:56.633Z,17.77
2023-04-16T11:47:58.654Z,17.57
2023-04-16T11:51:00.348Z,16.60
2023-04-16T11:54:02.292Z,16.40
2023-04-16T11:57:06.817Z,21.13
2023-04-16T12:00:12.840Z,21.33
2023-04-16T12:03:14.667Z,18.30
2023-04-16T12:06:16.398Z,22.57
2023-04-16T12:09:26.086Z,21.70
2023-04-16T12:12:30.828Z,20.77
2023-04-16T12:15:50.847Z,22.00
2023-04-16T12:19:01.172Z,23.93
2023-04-16T12:22:02.966Z,23.07
2023-04-16T12:25:12.182Z,20.63
2023-04-16T12:28:13.800Z,25.13
2023-04-16T12:31:15.713Z,24.30
2023-04-16T12:34:18.973Z,22.10
2023-04-16T12:37:21.082Z,24.23
2023-04-16T12:40:22.693Z,23.27
2023-04-16T12:43:25.141Z,21.70
2023-04-16T12:46:26.818Z,21.20
2023-04-16T12:49:28.433Z,24.40
2023-04-16T12:52:30.072Z,20.07
2023-04-16T12:55:31.685Z,19.50
2023-04-16T12:58:34.357Z,20.30
2023-04-16T13:01:37.077Z,22.13
2023-04-16T13:04:38.874Z,20.37
2023-04-16T13:07:41.555Z,22.13
2023-04-16T13:10:43.225Z,22.60
2023-04-16T13:13:45.279Z,23.00
2023-04-16T13:16:47.045Z,21.87
2023-04-16T13:19:48.909Z,23.90
2023-04-16T13:22:50.828Z,23.60
2023-04-16T13:25:52.838Z,24.10
2023-04-16T13:28:54.572Z,27.33
2023-04-16T13:31:56.346Z,25.70
2023-04-16T13:34:57.897Z,22.27
2023-04-16T13:37:59.522Z,22.13
2023-04-16T13:41:01.172Z,24.73
2023-04-16T13:44:02.803Z,23.60
2023-04-16T13:47:04.466Z,22.30
2023-04-16T13:50:06.362Z,22.10
2023-04-16T13:53:07.965Z,27.13
2023-04-16T13:56:10.766Z,23.60
2023-04-16T13:59:12.548Z,22.40
2023-04-16T14:02:14.676Z,23.87
2023-04-16T14:05:16.471Z,23.70
2023-04-16T14:08:21.133Z,22.00
2023-04-16T14:11:23.490Z,24.30
2023-04-16T14:14:25.885Z,27.47
2023-04-16T14:17:27.490Z,25.77
2023-04-16T14:20:29.160Z,25.70
2023-04-16T14:23:31.687Z,24.77
2023-04-16T14:26:33.260Z,21.40
2023-04-16T14:29:36.304Z,22.03
2023-04-16T14:32:38.048Z,19.50
2023-04-16T14:35:39.705Z,18.27
2023-04-16T14:38:43.147Z,19.50
2023-04-16T14:41:44.714Z,19.50
2023-04-16T14:44:46.284Z,21.60
2023-04-16T14:47:48.228Z,20.00
2023-04-16T14:50:49.851Z,19.87
2023-04-16T14:53:51.544Z,22.43
2023-04-16T14:56:53.316Z,19.30
2023-04-16T14:59:55.022Z,21.53
2023-04-16T15:02:57.479Z,22.57
2023-04-16T15:05:59.404Z,21.90
2023-04-16T15:09:01.265Z,20.00
2023-04-16T15:12:02.971Z,21.33
2023-04-16T15:15:06.782Z,19.67
2023-04-16T15:18:08.692Z,24.30
2023-04-16T15:21:12.437Z,20.60
2023-04-16T15:24:14.453Z,20.03
2023-04-16T15:27:17.599Z,19.93
2023-04-16T15:30:21.340Z,23.23
2023-04-16T15:33:23.313Z,22.90
2023-04-16T15:36:24.954Z,26.53
2023-04-16T15:39:26.598Z,21.77
2023-04-16T15:42:28.399Z,22.07
2023-04-16T15:45:30.052Z,18.90
2023-04-16T15:48:31.688Z,24.20
2023-04-16T15:51:33.348Z,21.87
2023-04-16T15:54:35.556Z,19.17
2023-04-16T15:57:37.281Z,21.53
2023-04-16T16:00:39.167Z,22.70
2023-04-16T16:03:41.024Z,23.10
2023-04-16T16:06:43.035Z,22.27
2023-04-16T16:09:44.842Z,22.40
2023-04-16T16:12:46.808Z,25.20
2023-04-16T16:15:48.517Z,23.37
2023-04-16T16:18:50.219Z,21.60
2023-04-16T16:21:51.882Z,21.13
2023-04-16T16:24:55.828Z,20.87
2023-04-16T16:27:58.879Z,19.00
2023-04-16T16:31:01.518Z,19.77
2023-04-16T16:34:03.169Z,21.20
2023-04-16T16:37:05.826Z,22.77
2023-04-16T16:40:07.988Z,22.10
2023-04-16T16:43:09.727Z,22.10
2023-04-16T16:46:11.454Z,22.83
2023-04-16T16:49:14.126Z,22.77
2023-04-16T16:52:15.903Z,24.50
2023-04-16T16:55:18.769Z,22.87
2023-04-16T16:58:20.783Z,28.00
2023-04-16T17:01:22.416Z,24.27
2023-04-16T17:04:24.318Z,22.13
2023-04-16T17:07:26.253Z,24.77
2023-04-16T17:10:28.552Z,22.40
2023-04-16T17:13:32.413Z,22.87
2023-04-16T17:16:34.026Z,21.77
2023-04-16T17:19:35.694Z,17.20
2023-04-16T17:22:38.512Z,16.53
2023-04-16T17:25:40.077Z,14.80
2023-04-16T17:28:41.702Z,19.90
2023-04-16T17:31:43.293Z,12.57
2023-04-16T17:34:44.890Z,14.27
2023-04-16T17:37:46.457Z,21.70
2023-04-16T17:40:48.014Z,26.17
2023-04-16T17:43:50.622Z,20.33
2023-04-16T17:46:52.300Z,25.73
2023-04-16T17:49:55.259Z,17.70
2023-04-16T17:53:02.977Z,18.30
2023-04-16T17:56:04.778Z,20.53
2023-04-16T17:59:06.497Z,22.17
2023-04-16T18:02:08.153Z,18.13
2023-04-16T18:05:09.938Z,22.50
2023-04-16T18:08:11.573Z,21.10
2023-04-16T18:11:13.304Z,24.10
2023-04-16T18:14:19.699Z,21.63
2023-04-16T18:17:24.373Z,17.87
2023-04-16T18:20:27.201Z,21.50
2023-04-16T18:23:28.845Z,23.87
2023-04-16T18:26:31.203Z,22.47
2023-04-16T18:29:34.856Z,24.23
2023-04-16T18:32:37.528Z,26.07
2023-04-16T18:35:40.455Z,23.87
2023-04-16T18:38:56.941Z,21.53
2023-04-16T18:42:02.050Z,23.73
2023-04-16T18:45:04.103Z,21.80
2023-04-16T18:48:06.006Z,22.80
2023-04-16T18:51:07.937Z,24.43
2023-04-16T18:54:09.603Z,25.60
2023-04-16T18:57:11.236Z,25.83
2023-04-16T19:00:13.341Z,24.63
2023-04-16T19:03:15.337Z,23.87
2023-04-16T19:06:17.157Z,21.87
2023-04-16T19:09:19.833Z,27.40
2023-04-16T19:12:21.549Z,23.60
2023-04-16T19:15:23.206Z,25.40
2023-04-16T19:18:25.017Z,26.30
2023-04-16T19:21:28.514Z,23.87
2023-04-16T19:24:31.303Z,26.60
2023-04-16T19:27:34.816Z,28.03
2023-04-16T19:30:36.661Z,27.60
2023-04-16T19:33:38.267Z,24.40
2023-04-16T19:36:40.449Z,27.40
2023-04-16T19:39:42.485Z,24.33
2023-04-16T19:42:45.504Z,25.50
2023-04-16T19:45:52.375Z,25.63
2023-04-16T19:48:54.146Z,26.37
2023-04-16T19:51:56.001Z,27.63
2023-04-16T19:54:57.751Z,29.47
2023-04-16T19:58:05.538Z,31.40
2023-04-16T20:01:11.095Z,27.10
2023-04-16T20:04:12.857Z,28.40
2023-04-16T20:07:14.444Z,27.13
2023-04-16T20:10:16.321Z,28.80
2023-04-16T20:13:18.858Z,29.03
2023-04-16T20:16:23.397Z,28.03
2023-04-16T20:19:26.065Z,30.20
2023-04-16T20:22:27.929Z,27.20
2023-04-16T20:25:29.632Z,29.80
2023-04-16T20:28:31.263Z,30.60
2023-04-16T20:31:32.988Z,30.93
2023-04-16T20:34:34.633Z,33.50
2023-04-16T20:37:41.778Z,32.07
2023-04-16T20:40:44.997Z,39.67
2023-04-16T20:43:49.947Z,38.17
2023-04-16T20:46:54.756Z,36.20
2023-04-16T20:49:56.465Z,36.17
2023-04-16T20:52:58.101Z,36.50
2023-04-16T20:56:00.541Z,34.47
2023-04-16T20:59:02.205Z,33.70
2023-04-16T21:02:03.938Z,33.30
2023-04-16T21:05:16.137Z,35.17
2023-04-16T21:08:18.902Z,33.60
2023-04-16T21:11:20.678Z,33.77
2023-04-16T21:14:22.273Z,37.67
2023-04-16T21:17:23.917Z,47.27
2023-04-16T21:20:25.550Z,34.40
2023-04-16T21:23:27.213Z,37.37
2023-04-16T21:26:28.853Z,39.10
2023-04-16T21:29:30.488Z,28.87
2023-04-16T21:32:32.256Z,33.10
2023-04-16T21:35:33.958Z,34.33
2023-04-16T21:38:35.733Z,30.83
2023-04-16T21:41:37.328Z,33.47
2023-04-16T21:44:39.001Z,32.17
2023-04-16T21:47:40.782Z,28.37
2023-04-16T21:50:42.389Z,33.03
2023-04-16T21:53:43.992Z,28.33
2023-04-16T21:56:46.162Z,29.10
2023-04-16T21:59:47.690Z,31.23
2023-04-16T22:02:49.518Z,25.30
2023-04-16T22:05:51.557Z,30.03
2023-04-16T22:08:53.392Z,28.13
2023-04-16T22:11:57.658Z,27.03
2023-04-16T22:15:02.753Z,29.97
2023-04-16T22:18:05.086Z,31.87
2023-04-16T22:21:07.108Z,33.23
2023-04-16T22:24:08.869Z,27.60
2023-04-16T22:27:10.440Z,29.40
2023-04-16T22:30:13.092Z,30.77
2023-04-16T22:33:14.916Z,29.50
2023-04-16T22:36:16.551Z,29.27
2023-04-16T22:39:18.287Z,30.70
2023-04-16T22:42:19.866Z,31.17
2023-04-16T22:45:22.494Z,28.97
2023-04-16T22:48:24.064Z,29.50
2023-04-16T22:51:25.641Z,29.80
2023-04-16T22:54:31.217Z,30.77
2023-04-16T22:57:32.816Z,30.70
2023-04-16T23:00:34.420Z,25.43
2023-04-16T23:03:36.203Z,26.53
2023-04-16T23:06:37.888Z,25.23
2023-04-16T23:09:39.457Z,23.23
2023-04-16T23:12:41.121Z,26.87
2023-04-16T23:15:43.651Z,24.03
2023-04-16T23:18:45.253Z,24.80
2023-04-16T23:21:46.831Z,27.13
2023-04-16T23:24:48.389Z,25.10
2023-04-16T23:27:50.094Z,25.87
2023-04-16T23:30:52.783Z,23.80
2023-04-16T23:33:54.497Z,25.43
2023-04-16T23:36:56.083Z,26.80
2023-04-16T23:39:57.708Z,25.00
2023-04-16T23:42:59.361Z,26.93
2023-04-16T23:46:02.295Z,31.77
2023-04-16T23:49:04.469Z,29.83
2023-04-16T23:52:06.130Z,25.40
2023-04-16T23:55:08.150Z,26.00
2023-04-16T23:58:09.740Z,30.53
